Time;durP1;ratioP1;P1;durP2;ratioP2;P2;SDS_P1;SDS_P2;PMS_P1;PMS_P2;Temp;Humidity;BMP_temperature;BMP_pressure;BME280_temperature;BME280_humidity;BME280_pressure;Samples;Min_cycle;Max_cycle;Signal;HPM_P1;HPM_P2
2023/12/07 00:01:06;;;;;;;19.23;11.10;;;;;;;0.83;100.00;101195.97;5040535;28;20204;-75
2023/12/07 00:03:32;;;;;;;21.60;10.73;;;;;;;0.81;100.00;101200.59;5038338;28;20204;-75
2023/12/07 00:05:59;;;;;;;19.90;10.57;;;;;;;0.78;100.00;101196.69;5038763;28;20195;-75
2023/12/07 00:08:25;;;;;;;20.67;10.83;;;;;;;0.76;100.00;101196.16;5043886;28;20598;-75
2023/12/07 00:10:52;;;;;;;17.20;10.27;;;;;;;0.76;100.00;101195.34;5041645;28;20218;-75
2023/12/07 00:13:18;;;;;;;18.60;10.93;;;;;;;0.73;100.00;101196.63;5040876;28;20682;-75
2023/12/07 00:15:45;;;;;;;17.63;11.23;;;;;;;0.71;100.00;101185.72;5040858;28;20655;-74
2023/12/07 00:18:11;;;;;;;18.70;11.30;;;;;;;0.68;100.00;101191.38;5040234;28;20717;-75
2023/12/07 00:20:37;;;;;;;16.60;11.13;;;;;;;0.68;100.00;101193.22;5043080;28;20199;-75
2023/12/07 00:23:03;;;;;;;17.57;10.43;;;;;;;0.66;100.00;101196.06;5039605;28;20202;-75
2023/12/07 00:25:31;;;;;;;19.17;10.13;;;;;;;0.64;100.00;101199.94;5037891;28;20200;-75
2023/12/07 00:27:58;;;;;;;18.37;10.10;;;;;;;0.63;100.00;101200.97;5040321;28;20238;-75
2023/12/07 00:30:24;;;;;;;18.57;10.33;;;;;;;0.60;100.00;101204.84;5042819;28;20582;-76
2023/12/07 00:32:50;;;;;;;18.63;10.47;;;;;;;0.59;100.00;101205.06;5041738;28;20503;-75
2023/12/07 00:35:17;;;;;;;22.20;10.80;;;;;;;0.56;100.00;101197.75;5045029;28;20206;-75
2023/12/07 00:37:44;;;;;;;18.20;11.13;;;;;;;0.55;100.00;101202.19;5039716;28;20219;-74
2023/12/07 00:40:12;;;;;;;16.77;10.27;;;;;;;0.53;100.00;101204.22;5047111;28;20203;-75
2023/12/07 00:42:40;;;;;;;17.23;10.53;;;;;;;0.51;100.00;101210.69;5045176;28;20195;-75
2023/12/07 00:45:06;;;;;;;17.03;10.63;;;;;;;0.50;100.00;101203.94;5040248;28;20207;-75
2023/12/07 00:47:33;;;;;;;19.40;11.60;;;;;;;0.46;100.00;101206.22;5049018;28;20238;-75
2023/12/07 00:49:59;;;;;;;17.63;10.30;;;;;;;0.45;100.00;101209.06;5046084;28;20338;-75
2023/12/07 00:52:26;;;;;;;17.17;10.40;;;;;;;0.44;100.00;101210.09;5041280;28;20199;-75
2023/12/07 00:54:52;;;;;;;17.23;10.60;;;;;;;0.42;100.00;101205.13;5041204;28;20250;-75
2023/12/07 00:57:18;;;;;;;15.67;10.33;;;;;;;0.42;100.00;101212.16;5047462;28;20211;-75
2023/12/07 00:59:46;;;;;;;15.03;9.50;;;;;;;0.40;100.00;101214.19;5045808;28;20201;-75
2023/12/07 01:02:12;;;;;;;14.40;8.80;;;;;;;0.39;100.00;101215.25;5060737;28;20199;-75
2023/12/07 01:04:39;;;;;;;17.63;9.83;;;;;;;0.37;100.00;101225.09;5048538;28;20574;-76
2023/12/07 01:07:05;;;;;;;16.60;10.60;;;;;;;0.35;100.00;101222.72;5048442;28;20721;-74
2023/12/07 01:09:32;;;;;;;17.40;10.57;;;;;;;0.34;100.00;101220.38;5044295;28;20227;-75
2023/12/07 01:11:58;;;;;;;24.00;11.20;;;;;;;0.33;100.00;101226.59;5048950;28;20204;-74
2023/12/07 01:14:25;;;;;;;19.47;10.93;;;;;;;0.32;100.00;101225.03;5044491;28;20200;-76
2023/12/07 01:16:52;;;;;;;19.77;11.17;;;;;;;0.30;100.00;101224.47;5046730;28;20715;-75
2023/12/07 01:19:19;;;;;;;18.20;10.27;;;;;;;0.27;100.00;101228.34;5047963;28;20199;-75
2023/12/07 01:21:45;;;;;;;17.03;10.87;;;;;;;0.25;100.00;101225.22;5049699;28;20421;-74
2023/12/07 01:24:12;;;;;;;18.93;11.00;;;;;;;0.24;100.00;101228.03;5045269;28;20206;-75
2023/12/07 01:26:38;;;;;;;15.47;10.20;;;;;;;0.22;100.00;101236.06;5045290;28;20204;-76
2023/12/07 01:29:05;;;;;;;20.57;11.30;;;;;;;0.19;100.00;101228.78;5044934;28;20635;-75
2023/12/07 01:31:31;;;;;;;17.53;10.43;;;;;;;0.17;100.00;101245.63;5039282;28;20211;-76
2023/12/07 01:33:59;;;;;;;18.30;11.10;;;;;;;0.15;100.00;101242.47;5040354;28;20582;-74
2023/12/07 01:36:26;;;;;;;20.20;11.17;;;;;;;0.13;100.00;101250.50;5039796;28;20208;-74
2023/12/07 01:38:53;;;;;;;20.00;11.47;;;;;;;0.10;100.00;101252.78;5045611;28;20211;-75
2023/12/07 01:41:20;;;;;;;19.30;11.23;;;;;;;0.06;100.00;101246.53;5042496;28;20203;-76
2023/12/07 01:43:46;;;;;;;20.07;11.53;;;;;;;0.05;100.00;101256.09;5042677;28;20681;-76
2023/12/07 01:46:14;;;;;;;17.83;10.63;;;;;;;0.03;100.00;101247.00;5048622;28;20692;-76
2023/12/07 01:48:40;;;;;;;19.33;10.97;;;;;;;0.00;100.00;101247.47;5047482;28;20211;-74
2023/12/07 01:51:09;;;;;;;19.43;10.80;;;;;;;-0.03;100.00;101248.75;5047421;28;20280;-75
2023/12/07 01:53:35;;;;;;;21.57;11.97;;;;;;;-0.04;100.00;101249.75;5043157;28;20199;-75
2023/12/07 01:56:02;;;;;;;20.23;11.37;;;;;;;-0.04;100.00;101244.56;5046910;28;20578;-75
2023/12/07 01:58:28;;;;;;;20.40;10.93;;;;;;;-0.07;100.00;101254.63;5043548;28;20215;-76
2023/12/07 02:00:55;;;;;;;20.10;11.10;;;;;;;-0.07;100.00;101254.63;5043010;28;20195;-75
2023/12/07 02:03:22;;;;;;;19.47;11.23;;;;;;;-0.07;100.00;101257.22;5040598;28;20280;-75
2023/12/07 02:05:49;;;;;;;17.67;10.47;;;;;;;-0.06;100.00;101254.41;5036253;28;20192;-75
2023/12/07 02:08:17;;;;;;;18.67;10.60;;;;;;;-0.05;100.00;101260.41;5034446;28;20219;-75
2023/12/07 02:10:43;;;;;;;18.33;10.70;;;;;;;-0.04;100.00;101259.38;5039553;28;20224;-74
2023/12/07 02:13:10;;;;;;;18.23;10.57;;;;;;;-0.02;100.00;101260.69;5039486;28;20202;-75
2023/12/07 02:15:37;;;;;;;18.20;10.90;;;;;;;0.01;100.00;101273.19;5039071;28;20192;-75
2023/12/07 02:18:11;;;;;;;18.30;11.03;;;;;;;0.02;100.00;101268.78;5039411;28;20578;-75
2023/12/07 02:20:42;;;;;;;19.47;11.03;;;;;;;0.05;100.00;101268.28;5046890;28;20613;-75
2023/12/07 02:23:10;;;;;;;19.57;11.13;;;;;;;0.08;100.00;101270.41;5044146;28;20586;-75
2023/12/07 02:25:49;;;;;;;20.57;10.90;;;;;;;0.10;100.00;101266.56;5043700;28;20195;-74
2023/12/07 02:28:17;;;;;;;21.50;11.53;;;;;;;0.13;100.00;101266.09;5041326;28;20234;-74
2023/12/07 02:30:43;;;;;;;21.30;12.07;;;;;;;0.16;100.00;101265.59;5039680;28;20207;-73
2023/12/07 02:33:10;;;;;;;19.83;11.73;;;;;;;0.19;100.00;101272.91;5043535;28;20196;-74
2023/12/07 02:35:37;;;;;;;20.50;12.07;;;;;;;0.22;100.00;101269.06;5040630;28;20194;-76
2023/12/07 02:38:06;;;;;;;23.97;13.03;;;;;;;0.25;100.00;101271.16;5044559;28;20717;-76
2023/12/07 02:40:32;;;;;;;22.33;13.17;;;;;;;0.27;100.00;101272.50;5041838;28;20195;-75
2023/12/07 02:43:01;;;;;;;24.07;12.77;;;;;;;0.31;100.00;101278.78;5040220;28;20574;-75
2023/12/07 02:45:29;;;;;;;20.17;12.03;;;;;;;0.34;100.00;101272.31;5044288;28;20219;-75
2023/12/07 02:47:55;;;;;;;23.23;12.63;;;;;;;0.36;100.00;101276.25;5040584;28;20227;-73
2023/12/07 02:50:22;;;;;;;19.53;12.27;;;;;;;0.38;100.00;101274.19;5042466;28;20211;-75
2023/12/07 02:52:48;;;;;;;21.37;12.63;;;;;;;0.41;100.00;101276.31;5043474;28;20203;-76
2023/12/07 02:55:14;;;;;;;21.00;12.80;;;;;;;0.43;100.00;101282.03;5039890;28;20202;-75
2023/12/07 02:57:41;;;;;;;22.37;13.00;;;;;;;0.45;100.00;101289.59;5038673;28;20227;-75
2023/12/07 03:00:08;;;;;;;22.33;11.93;;;;;;;0.47;100.00;101287.56;5044087;28;20191;-75
2023/12/07 03:02:36;;;;;;;22.43;12.77;;;;;;;0.50;100.00;101287.84;5042686;28;20203;-76
2023/12/07 03:05:03;;;;;;;23.70;12.60;;;;;;;0.52;100.00;101290.22;5041659;28;20862;-76
2023/12/07 03:07:29;;;;;;;28.77;13.33;;;;;;;0.54;100.00;101290.75;5039349;28;20219;-73
2023/12/07 03:09:56;;;;;;;23.37;12.53;;;;;;;0.56;100.00;101293.88;5034091;28;20303;-75
2023/12/07 03:12:22;;;;;;;25.10;12.57;;;;;;;0.57;100.00;101295.47;5035075;28;20706;-75
2023/12/07 03:14:49;;;;;;;23.37;12.97;;;;;;;0.58;100.00;101294.44;5037018;28;20207;-75
2023/12/07 03:17:15;;;;;;;20.93;12.93;;;;;;;0.61;100.00;101304.34;5037898;28;20215;-76
2023/12/07 03:19:43;;;;;;;22.43;12.70;;;;;;;0.62;100.00;101303.31;5035303;28;20293;-74
2023/12/07 03:22:09;;;;;;;25.33;13.17;;;;;;;0.62;100.00;101304.09;5037922;28;20192;-75
2023/12/07 03:24:36;;;;;;;26.03;13.70;;;;;;;0.65;100.00;101310.63;5036829;28;20566;-74
2023/12/07 03:27:02;;;;;;;19.17;11.70;;;;;;;0.65;100.00;101306.22;5039043;28;20238;-75
2023/12/07 03:29:28;;;;;;;20.13;11.63;;;;;;;0.67;100.00;101314.56;5037049;28;20200;-74
2023/12/07 03:31:55;;;;;;;24.43;13.03;;;;;;;0.67;100.00;101314.56;5034527;28;20195;-75
2023/12/07 03:34:21;;;;;;;22.27;11.87;;;;;;;0.68;100.00;101308.31;5037651;28;20206;-76
2023/12/07 03:36:49;;;;;;;23.17;13.33;;;;;;;0.68;100.00;101313.53;5036376;28;21104;-76
2023/12/07 03:39:18;;;;;;;24.10;12.83;;;;;;;0.70;100.00;101315.88;5033505;28;20196;-76
2023/12/07 03:41:45;;;;;;;25.10;14.10;;;;;;;0.72;100.00;101316.41;5035842;28;20284;-75
2023/12/07 03:44:11;;;;;;;22.23;12.97;;;;;;;0.72;100.00;101314.63;5035641;28;20195;-74
2023/12/07 03:46:37;;;;;;;22.60;12.87;;;;;;;0.74;100.00;101314.38;5036531;28;20201;-75
2023/12/07 03:49:04;;;;;;;21.00;12.60;;;;;;;0.75;100.00;101316.75;5035973;28;20207;-76
2023/12/07 03:51:31;;;;;;;21.53;12.50;;;;;;;0.76;100.00;101318.31;5037543;28;20207;-75
2023/12/07 03:53:58;;;;;;;25.33;14.00;;;;;;;0.78;100.00;101321.44;5033026;28;20208;-74
2023/12/07 03:56:25;;;;;;;22.50;12.13;;;;;;;0.78;100.00;101315.47;5040130;28;20194;-76
2023/12/07 03:58:51;;;;;;;20.33;12.47;;;;;;;0.80;100.00;101316.00;5038576;28;20195;-75
2023/12/07 04:01:18;;;;;;;19.83;11.57;;;;;;;0.81;100.00;101318.38;5038735;28;20567;-75
2023/12/07 04:03:46;;;;;;;21.20;12.20;;;;;;;0.81;100.00;101312.38;5037189;28;20521;-74
2023/12/07 04:06:12;;;;;;;23.33;12.70;;;;;;;0.83;100.00;101328.53;5040101;28;20718;-74
2023/12/07 04:08:39;;;;;;;22.80;12.83;;;;;;;0.83;100.00;101323.34;5035051;28;20219;-75
2023/12/07 04:11:06;;;;;;;21.37;12.20;;;;;;;0.85;100.00;101323.88;5051922;28;20219;-75
2023/12/07 04:13:33;;;;;;;21.20;11.33;;;;;;;0.87;100.00;101329.59;5035266;28;20208;-75
2023/12/07 04:15:59;;;;;;;24.63;13.10;;;;;;;0.87;100.00;101340.78;5032874;28;21930;-75
2023/12/07 04:18:25;;;;;;;20.67;11.90;;;;;;;0.88;100.00;101337.16;5032629;28;20681;-73
2023/12/07 04:20:52;;;;;;;22.63;12.17;;;;;;;0.90;100.00;101336.91;5031971;28;20206;-74
2023/12/07 04:23:18;;;;;;;22.47;13.10;;;;;;;0.91;100.00;101338.47;5037687;28;20191;-76
2023/12/07 04:25:44;;;;;;;24.00;14.47;;;;;;;0.92;100.00;101338.25;5036150;28;20195;-74
2023/12/07 04:28:12;;;;;;;22.97;12.50;;;;;;;0.93;100.00;101337.22;5037931;28;20250;-76
2023/12/07 04:30:38;;;;;;;23.03;12.80;;;;;;;0.93;100.00;101337.22;5035654;28;20552;-76
2023/12/07 04:33:05;;;;;;;22.47;12.63;;;;;;;0.95;100.00;101339.56;5033641;28;20206;-75
2023/12/07 04:35:31;;;;;;;20.90;11.87;;;;;;;0.96;100.00;101341.16;5034310;28;20203;-76
2023/12/07 04:37:58;;;;;;;24.90;13.77;;;;;;;0.99;100.00;101346.63;5039305;28;20230;-75
2023/12/07 04:40:25;;;;;;;23.80;13.07;;;;;;;0.99;100.00;101338.84;5040236;28;20203;-76
2023/12/07 04:42:51;;;;;;;23.90;13.33;;;;;;;1.01;100.00;101343.81;5037128;28;20203;-75
2023/12/07 04:45:19;;;;;;;19.53;11.87;;;;;;;1.03;100.00;101349.53;5038025;28;20223;-74
2023/12/07 04:47:46;;;;;;;22.07;12.63;;;;;;;1.03;100.00;101352.94;5032409;28;20286;-75
2023/12/07 04:50:13;;;;;;;23.77;12.80;;;;;;;1.05;100.00;101355.28;5036353;28;20222;-74
2023/12/07 04:52:39;;;;;;;24.57;13.93;;;;;;;1.05;100.00;101363.09;5052636;28;20195;-75
2023/12/07 04:55:07;;;;;;;22.47;12.27;;;;;;;1.05;100.00;101369.06;5032067;28;20449;-75
2023/12/07 04:57:34;;;;;;;23.50;13.43;;;;;;;1.06;100.00;101362.84;5038273;28;20243;-75
2023/12/07 05:00:00;;;;;;;20.30;12.33;;;;;;;1.05;100.00;101358.66;5030667;28;20678;-75
2023/12/07 05:02:28;;;;;;;27.27;13.63;;;;;;;1.06;100.00;101370.66;5036819;28;20332;-75
2023/12/07 05:04:55;;;;;;;21.50;12.57;;;;;;;1.07;100.00;101364.41;5036248;28;20202;-75
2023/12/07 05:07:21;;;;;;;22.93;12.80;;;;;;;1.08;100.00;101368.59;5036079;28;20586;-75
2023/12/07 05:09:48;;;;;;;22.77;13.00;;;;;;;1.10;100.00;101376.16;5039552;28;20211;-73
2023/12/07 05:12:14;;;;;;;21.87;12.30;;;;;;;1.10;100.00;101366.53;5039379;28;20208;-76
2023/12/07 05:14:41;;;;;;;21.70;12.70;;;;;;;1.12;100.00;101371.47;5041374;28;20450;-73
2023/12/07 05:17:07;;;;;;;27.40;13.97;;;;;;;1.12;100.00;101369.69;5035365;28;20221;-73
2023/12/07 05:19:35;;;;;;;28.37;15.60;;;;;;;1.13;100.00;101371.25;5031727;28;20192;-74
2023/12/07 05:22:01;;;;;;;22.33;13.33;;;;;;;1.13;100.00;101371.25;5035526;28;20200;-75
2023/12/07 05:24:28;;;;;;;31.43;17.20;;;;;;;1.14;100.00;101378.00;5033851;28;20203;-75
2023/12/07 05:26:54;;;;;;;49.17;23.60;;;;;;;1.16;100.00;101367.38;5038168;28;20305;-76
2023/12/07 05:29:21;;;;;;;65.43;30.93;;;;;;;1.16;100.00;101375.97;5041413;28;20261;-75
2023/12/07 05:31:49;;;;;;;39.67;22.03;;;;;;;1.17;100.00;101377.53;5036981;28;20227;-74
2023/12/07 05:34:16;;;;;;;29.13;16.07;;;;;;;1.17;100.00;101377.53;5037017;28;20203;-75
2023/12/07 05:36:43;;;;;;;26.93;15.30;;;;;;;1.20;100.00;101376.25;5035002;28;20265;-74
2023/12/07 05:39:11;;;;;;;24.90;14.17;;;;;;;1.20;100.00;101381.47;5040128;28;20199;-75
2023/12/07 05:41:37;;;;;;;24.93;14.73;;;;;;;1.22;100.00;101376.78;5038977;28;20192;-75
2023/12/07 05:44:04;;;;;;;26.03;15.20;;;;;;;1.22;100.00;101388.00;5040661;28;20219;-76
2023/12/07 05:46:31;;;;;;;25.83;14.27;;;;;;;1.23;100.00;101386.97;5037814;28;20200;-75
2023/12/07 05:48:57;;;;;;;25.33;15.03;;;;;;;1.24;100.00;101395.53;5035156;28;20290;-74
2023/12/07 05:51:24;;;;;;;27.40;15.43;;;;;;;1.25;100.00;101394.53;5037600;28;20212;-74
2023/12/07 05:53:52;;;;;;;27.50;15.73;;;;;;;1.26;100.00;101391.66;5042297;28;20215;-75
2023/12/07 05:56:20;;;;;;;24.63;14.70;;;;;;;1.27;100.00;101395.84;5037547;28;20515;-76
2023/12/07 05:58:46;;;;;;;27.23;14.57;;;;;;;1.28;100.00;101402.63;5036447;28;20223;-74
2023/12/07 06:01:13;;;;;;;24.63;14.53;;;;;;;1.29;100.00;101406.78;5036060;28;20206;-74
2023/12/07 06:03:39;;;;;;;28.87;15.03;;;;;;;1.29;100.00;101400.78;5033943;28;20208;-74
2023/12/07 06:06:06;;;;;;;27.53;15.00;;;;;;;1.30;100.00;101399.78;5034850;28;20199;-76
2023/12/07 06:08:32;;;;;;;25.00;14.87;;;;;;;1.31;100.00;101404.72;5039105;28;20277;-74
2023/12/07 06:11:00;;;;;;;27.87;15.97;;;;;;;1.32;100.00;101405.53;5035625;28;20694;-75
2023/12/07 06:13:26;;;;;;;27.13;15.70;;;;;;;1.32;100.00;101408.91;5041251;28;20211;-74
2023/12/07 06:15:52;;;;;;;31.50;16.63;;;;;;;1.33;100.00;101400.06;5036894;28;20217;-75
2023/12/07 06:18:19;;;;;;;31.37;15.53;;;;;;;1.35;100.00;101402.44;5036577;28;20227;-76
2023/12/07 06:20:46;;;;;;;25.83;14.90;;;;;;;1.34;100.00;101401.66;5033486;28;20242;-76
2023/12/07 06:23:12;;;;;;;31.33;15.17;;;;;;;1.36;100.00;101401.41;5039668;28;20203;-73
2023/12/07 06:25:39;;;;;;;27.03;15.70;;;;;;;1.38;100.00;101401.94;5039841;28;20576;-75
2023/12/07 06:28:07;;;;;;;30.33;15.73;;;;;;;1.37;100.00;101403.78;5035079;28;20760;-75
2023/12/07 06:30:33;;;;;;;29.97;15.83;;;;;;;1.38;100.00;101407.94;5039258;28;20269;-75
2023/12/07 06:32:59;;;;;;;34.00;17.97;;;;;;;1.38;100.00;101405.34;5037085;28;20211;-75
2023/12/07 06:35:26;;;;;;;30.17;15.80;;;;;;;1.39;100.00;101413.91;5039503;28;20199;-74
2023/12/07 06:37:52;;;;;;;33.83;16.07;;;;;;;1.41;100.00;101417.06;5037861;28;20231;-74
2023/12/07 06:40:20;;;;;;;32.13;17.23;;;;;;;1.40;100.00;101416.28;5038719;28;20200;-75
2023/12/07 06:42:46;;;;;;;30.10;15.73;;;;;;;1.42;100.00;101416.84;5043727;28;20199;-74
2023/12/07 06:45:14;;;;;;;28.93;16.53;;;;;;;1.41;100.00;101410.03;5042804;28;20294;-74
2023/12/07 06:47:42;;;;;;;29.47;17.60;;;;;;;1.43;100.00;101415.00;5042950;28;20571;-74
2023/12/07 06:50:09;;;;;;;29.93;16.57;;;;;;;1.43;100.00;101408.00;5041903;28;20204;-75
2023/12/07 06:52:36;;;;;;;31.20;16.00;;;;;;;1.44;100.00;101408.75;5041481;28;20215;-75
2023/12/07 06:55:02;;;;;;;28.57;15.93;;;;;;;1.43;100.00;101405.38;5044060;28;20203;-73
2023/12/07 06:57:29;;;;;;;30.70;16.50;;;;;;;1.44;100.00;101408.75;5040023;28;20222;-73
2023/12/07 06:59:56;;;;;;;30.87;16.33;;;;;;;1.44;100.00;101412.16;5041871;28;20219;-72
2023/12/07 07:02:24;;;;;;;31.90;16.70;;;;;;;1.45;100.00;101413.72;5044736;28;20198;-75
2023/12/07 07:04:50;;;;;;;33.13;18.37;;;;;;;1.46;100.00;101417.91;5047162;28;20210;-74
2023/12/07 07:07:16;;;;;;;31.53;18.27;;;;;;;1.46;100.00;101423.09;5042651;28;20215;-75
2023/12/07 07:09:43;;;;;;;36.93;17.83;;;;;;;1.47;100.00;101421.28;5047359;28;20333;-74
2023/12/07 07:12:10;;;;;;;43.17;23.33;;;;;;;1.50;100.00;101431.22;5044935;28;20238;-74
2023/12/07 07:14:37;;;;;;;36.97;19.97;;;;;;;1.50;100.00;101429.41;5042788;28;20609;-74
2023/12/07 07:17:04;;;;;;;41.50;21.87;;;;;;;1.50;100.00;101433.81;5047684;28;20280;-74
2023/12/07 07:19:32;;;;;;;49.00;23.60;;;;;;;1.51;100.00;101438.75;5044882;28;20253;-74
2023/12/07 07:21:58;;;;;;;47.47;22.33;;;;;;;1.51;100.00;101436.16;5047988;28;20274;-74
2023/12/07 07:24:24;;;;;;;35.97;19.80;;;;;;;1.53;100.00;101438.53;5039058;28;20541;-75
2023/12/07 07:26:50;;;;;;;35.33;18.53;;;;;;;1.54;100.00;101445.31;5046239;28;20222;-75
2023/12/07 07:29:17;;;;;;;60.47;26.63;;;;;;;1.56;100.00;101448.47;5045983;28;20685;-72
2023/12/07 07:31:43;;;;;;;56.17;26.37;;;;;;;1.56;100.00;101441.41;5047529;28;20210;-74
2023/12/07 07:34:09;;;;;;;48.33;24.60;;;;;;;1.57;100.00;101440.38;5044912;28;20587;-73
2023/12/07 07:36:37;;;;;;;50.50;24.10;;;;;;;1.58;100.00;101438.59;5042378;28;20859;-75
2023/12/07 07:39:04;;;;;;;40.70;22.07;;;;;;;1.58;100.00;101439.38;5051302;28;20434;-74
2023/12/07 07:41:31;;;;;;;40.67;21.23;;;;;;;1.60;100.00;101434.69;5046628;28;20661;-75
2023/12/07 07:43:57;;;;;;;44.73;21.10;;;;;;;1.61;100.00;101432.91;5040989;28;20204;-74
2023/12/07 07:46:25;;;;;;;42.23;22.17;;;;;;;1.63;100.00;101436.03;5043126;28;20203;-75
2023/12/07 07:48:51;;;;;;;47.00;22.33;;;;;;;1.64;100.00;101437.59;5045642;28;20199;-75
2023/12/07 07:51:18;;;;;;;47.90;23.30;;;;;;;1.64;100.00;101435.00;5050071;28;20207;-75
2023/12/07 07:53:45;;;;;;;45.40;23.90;;;;;;;1.66;100.00;101444.13;5051657;28;20201;-74
2023/12/07 07:56:12;;;;;;;46.00;22.20;;;;;;;1.67;100.00;101437.88;5043481;28;20235;-75
2023/12/07 07:58:38;;;;;;;37.53;19.17;;;;;;;1.68;100.00;101443.88;5046394;28;20694;-73
2023/12/07 08:01:04;;;;;;;43.53;22.97;;;;;;;1.70;100.00;101441.81;5044445;28;20666;-75
2023/12/07 08:03:31;;;;;;;45.53;26.07;;;;;;;1.72;100.00;101442.38;5042741;28;20674;-74
2023/12/07 08:05:57;;;;;;;39.37;21.80;;;;;;;1.72;100.00;101448.34;5046220;28;20647;-73
2023/12/07 08:08:26;;;;;;;39.23;20.10;;;;;;;1.73;100.00;101449.16;5043546;28;20221;-75
2023/12/07 08:10:53;;;;;;;39.60;19.70;;;;;;;1.76;100.00;101452.03;5043388;28;20577;-75
2023/12/07 08:13:20;;;;;;;42.40;19.33;;;;;;;1.77;100.00;101451.00;5040863;28;20568;-75
2023/12/07 08:15:46;;;;;;;36.43;19.27;;;;;;;1.79;100.00;101448.97;5045209;28;20206;-74
2023/12/07 08:18:14;;;;;;;38.10;18.87;;;;;;;1.80;100.00;101447.13;5048503;28;20838;-75
2023/12/07 08:20:40;;;;;;;36.47;18.63;;;;;;;1.82;100.00;101447.69;5045599;28;20282;-74
2023/12/07 08:23:06;;;;;;;39.10;19.23;;;;;;;1.84;100.00;101454.22;5045833;28;20209;-74
2023/12/07 08:25:33;;;;;;;34.97;18.87;;;;;;;1.87;100.00;101442.53;5048970;28;20195;-74
2023/12/07 08:28:00;;;;;;;37.93;19.77;;;;;;;1.88;100.00;101444.09;5040321;28;20219;-74
2023/12/07 08:30:27;;;;;;;37.70;19.27;;;;;;;1.90;100.00;101444.63;5041992;28;20210;-74
2023/12/07 08:32:53;;;;;;;38.07;19.10;;;;;;;1.91;100.00;101446.97;5043551;28;20495;-74
2023/12/07 08:35:19;;;;;;;40.07;19.13;;;;;;;1.93;100.00;101447.50;5044803;28;20210;-75
2023/12/07 08:37:46;;;;;;;37.23;18.23;;;;;;;1.95;100.00;101445.47;5045923;28;20222;-74
2023/12/07 08:40:15;;;;;;;34.80;17.77;;;;;;;1.97;100.00;101450.44;5044892;28;20211;-73
2023/12/07 08:42:41;;;;;;;37.47;18.80;;;;;;;1.98;100.00;101457.97;5044205;28;20200;-75
2023/12/07 08:45:10;;;;;;;36.33;17.83;;;;;;;1.99;100.00;101459.56;5044975;28;20207;-73
2023/12/07 08:47:37;;;;;;;36.20;18.30;;;;;;;2.02;100.00;101463.50;5047291;28;20207;-75
2023/12/07 08:50:03;;;;;;;33.97;16.87;;;;;;;2.03;100.00;101468.44;5042264;28;20689;-75
2023/12/07 08:52:30;;;;;;;34.30;17.43;;;;;;;2.05;100.00;101471.59;5042661;28;20228;-74
2023/12/07 08:54:56;;;;;;;34.00;17.33;;;;;;;2.06;100.00;101473.16;5044607;28;20204;-75
2023/12/07 08:57:22;;;;;;;41.17;18.40;;;;;;;2.07;100.00;101469.50;5036024;28;20746;-74
2023/12/07 08:59:49;;;;;;;35.73;18.17;;;;;;;2.08;100.00;101471.09;5050392;28;20199;-74
2023/12/07 09:02:16;;;;;;;38.37;19.53;;;;;;;2.10;100.00;101474.25;5053404;28;20199;-75
2023/12/07 09:04:43;;;;;;;36.23;18.10;;;;;;;2.14;100.00;101484.94;5049452;28;20203;-73
2023/12/07 09:07:11;;;;;;;36.67;17.87;;;;;;;2.14;100.00;101483.09;5050396;28;20222;-74
2023/12/07 09:09:37;;;;;;;32.97;17.20;;;;;;;2.15;100.00;101486.50;5050043;28;20214;-73
2023/12/07 09:12:04;;;;;;;39.73;18.33;;;;;;;2.18;100.00;101493.84;5049209;28;20219;-74
2023/12/07 09:14:30;;;;;;;37.90;17.33;;;;;;;2.20;100.00;101491.78;5046127;28;20218;-75
2023/12/07 09:16:57;;;;;;;36.97;18.50;;;;;;;2.21;100.00;101481.09;5048466;28;20223;-75
2023/12/07 09:19:24;;;;;;;37.07;18.13;;;;;;;2.24;100.00;101492.84;5053627;28;20659;-75
2023/12/07 09:21:51;;;;;;;41.00;18.37;;;;;;;2.25;100.00;101487.41;5046122;28;20191;-74
2023/12/07 09:24:17;;;;;;;42.67;19.63;;;;;;;2.27;100.00;101479.31;5053077;28;20282;-74
2023/12/07 09:26:44;;;;;;;39.17;19.00;;;;;;;2.29;100.00;101485.84;5049350;28;20256;-75
2023/12/07 09:29:10;;;;;;;39.93;18.97;;;;;;;2.31;100.00;101489.00;5047460;28;20349;-74
2023/12/07 09:31:36;;;;;;;40.77;18.97;;;;;;;2.33;100.00;101488.75;5045971;28;20219;-74
2023/12/07 09:34:03;;;;;;;40.60;19.27;;;;;;;2.35;100.00;101484.09;5048575;28;20206;-74
2023/12/07 09:36:30;;;;;;;40.27;19.03;;;;;;;2.36;100.00;101483.03;5051447;28;20204;-74
2023/12/07 09:38:57;;;;;;;41.13;18.07;;;;;;;2.37;100.00;101485.41;5046159;28;20216;-74
2023/12/07 09:41:24;;;;;;;42.57;17.70;;;;;;;2.40;100.00;101476.31;5048219;28;20566;-74
2023/12/07 09:43:51;;;;;;;45.60;18.83;;;;;;;2.43;100.00;101487.00;5045883;28;20203;-73
2023/12/07 09:46:17;;;;;;;41.83;19.03;;;;;;;2.46;100.00;101477.91;5049176;28;20305;-74
2023/12/07 09:48:44;;;;;;;42.20;19.33;;;;;;;2.48;100.00;101487.06;5047319;28;20215;-73
2023/12/07 09:51:11;;;;;;;37.80;18.60;;;;;;;2.51;100.00;101490.97;5050179;28;20249;-74
2023/12/07 09:53:41;;;;;;;38.27;20.07;;;;;;;2.53;100.00;101484.47;5046552;28;20590;-74
2023/12/07 09:56:08;;;;;;;44.30;19.17;;;;;;;2.56;100.00;101491.00;5048572;28;20356;-74
2023/12/07 09:58:35;;;;;;;40.53;19.77;;;;;;;2.58;100.00;101492.34;5045146;28;20219;-73
2023/12/07 10:01:01;;;;;;;40.40;19.33;;;;;;;2.60;100.00;101495.47;5049105;28;20198;-74
2023/12/07 10:03:28;;;;;;;41.13;19.17;;;;;;;2.64;100.00;101498.38;5045533;28;20187;-74
2023/12/07 10:05:56;;;;;;;38.70;18.30;;;;;;;2.67;100.00;101490.03;5044810;28;20231;-74
2023/12/07 10:08:29;;;;;;;45.40;19.97;;;;;;;2.71;100.00;101491.13;5042768;28;20227;-74
2023/12/07 10:11:15;;;;;;;45.90;20.10;;;;;;;2.73;100.00;101492.44;5039129;28;20195;-73
2023/12/07 10:13:41;;;;;;;42.70;19.70;;;;;;;2.75;100.00;101495.56;5028817;28;20235;-74
2023/12/07 10:16:10;;;;;;;45.13;19.83;;;;;;;2.77;100.00;101497.94;5042312;28;20238;-73
2023/12/07 10:18:36;;;;;;;37.73;18.20;;;;;;;2.79;100.00;101485.41;5042895;28;20229;-74
2023/12/07 10:21:03;;;;;;;47.07;19.50;;;;;;;2.82;100.00;101484.94;5041576;28;20642;-74
2023/12/07 10:23:31;;;;;;;44.50;19.83;;;;;;;2.84;100.00;101486.25;5040774;28;20558;-73
2023/12/07 10:25:59;;;;;;;42.47;20.03;;;;;;;2.87;100.00;101488.38;5041368;28;20209;-73
2023/12/07 10:28:27;;;;;;;54.73;20.53;;;;;;;2.88;100.00;101489.94;5042268;28;20218;-73
2023/12/07 10:30:54;;;;;;;45.43;18.80;;;;;;;2.90;100.00;101484.47;5038137;28;20197;-74
2023/12/07 10:33:20;;;;;;;44.47;19.40;;;;;;;2.92;100.00;101479.78;5038546;28;20701;-74
2023/12/07 10:35:48;;;;;;;50.70;20.07;;;;;;;2.92;100.00;101483.19;5041195;28;20196;-74
2023/12/07 10:38:14;;;;;;;48.00;19.90;;;;;;;2.94;100.00;101482.91;5044409;28;20215;-74
2023/12/07 10:40:41;;;;;;;45.07;18.30;;;;;;;2.93;100.00;101487.34;5041119;28;20205;-73
2023/12/07 10:43:09;;;;;;;49.73;19.47;;;;;;;2.95;100.00;101487.09;5048900;28;20195;-73
2023/12/07 10:45:38;;;;;;;36.30;17.40;;;;;;;2.94;100.00;101488.13;5050161;28;20201;-74
2023/12/07 10:48:06;;;;;;;42.80;19.23;;;;;;;2.94;100.00;101488.91;5041579;28;20220;-74
2023/12/07 10:50:36;;;;;;;50.73;18.90;;;;;;;2.92;100.00;101488.41;5040101;28;20221;-74
2023/12/07 10:53:08;;;;;;;42.23;18.03;;;;;;;2.94;100.00;101488.13;5041659;28;20218;-73
2023/12/07 10:55:43;;;;;;;42.63;17.27;;;;;;;2.93;100.00;101483.94;5043154;28;20662;-74
2023/12/07 10:58:12;;;;;;;46.73;18.80;;;;;;;2.91;100.00;101489.41;5042490;28;20218;-73
2023/12/07 11:00:44;;;;;;;48.17;19.73;;;;;;;2.92;100.00;101485.00;5045967;28;20202;-74
2023/12/07 11:03:11;;;;;;;43.80;17.37;;;;;;;2.92;100.00;101483.19;5047403;28;20404;-73
2023/12/07 11:05:40;;;;;;;44.57;17.77;;;;;;;2.91;100.00;101480.81;5046093;28;20200;-73
2023/12/07 11:08:10;;;;;;;45.23;17.43;;;;;;;2.91;100.00;101476.38;5044232;28;20587;-73